Time;durP1;ratioP1;P1;durP2;ratioP2;P2;SDS_P1;SDS_P2;PMS_P1;PMS_P2;Temp;Humidity;BMP_temperature;BMP_pressure;BME280_temperature;BME280_humidity;BME280_pressure;Samples;Min_cycle;Max_cycle;Signal;HPM_P1;HPM_P2
2021/06/29 00:00:29;;;;;;;12.57;5.15;;;589.50;1817.60;;;;;;5132082;28;20019;-74
2021/06/29 00:03:06;;;;;;;11.68;5.15;;;589.50;1817.60;;;;;;5113409;28;20057;-74
2021/06/29 00:05:36;;;;;;;8.98;4.40;;;589.40;1817.60;;;;;;5130594;28;20015;-74
2021/06/29 00:08:03;;;;;;;9.35;4.82;;;589.30;1817.60;;;;;;5129296;28;20502;-74
2021/06/29 00:10:30;;;;;;;9.50;4.85;;;589.30;1817.60;;;;;;5111316;28;20432;-74
2021/06/29 00:12:56;;;;;;;9.77;4.65;;;589.20;1817.60;;;;;;5113427;28;20400;-74
2021/06/29 00:15:24;;;;;;;9.90;4.85;;;589.10;1843.20;;;;;;5131420;27;20007;-74
2021/06/29 00:17:50;;;;;;;6.00;4.20;;;589.10;1843.20;;;;;;5116946;27;20058;-74
2021/06/29 00:20:17;;;;;;;8.32;4.50;;;589.10;1843.20;;;;;;5134829;27;20511;-74
2021/06/29 00:22:45;;;;;;;9.45;4.80;;;589.00;1843.20;;;;;;5135210;27;20528;-74
2021/06/29 00:25:13;;;;;;;6.32;4.20;;;588.90;1843.20;;;;;;5116842;27;20034;-78
2021/06/29 00:27:40;;;;;;;10.20;4.57;;;588.80;1843.20;;;;;;5134063;27;20073;-79
2021/06/29 00:30:07;;;;;;;8.90;4.20;;;564.10;1843.20;;;;;;5135284;27;20401;-75
2021/06/29 00:32:33;;;;;;;6.03;4.85;;;564.10;1843.20;;;;;;5134864;27;20019;-74
2021/06/29 00:34:58;;;;;;;7.38;4.68;;;564.10;1843.20;;;;;;5134827;27;20075;-74
2021/06/29 00:37:24;;;;;;;6.05;4.38;;;564.00;1843.20;;;;;;5134688;27;20035;-74
2021/06/29 00:39:50;;;;;;;9.20;4.85;;;564.00;1843.20;;;;;;5135135;27;20044;-78
2021/06/29 00:42:16;;;;;;;10.05;4.80;;;563.90;1868.80;;;;;;5134788;27;20126;-74
2021/06/29 00:44:44;;;;;;;7.55;4.50;;;564.00;1843.20;;;;;;5113555;27;20569;-79
2021/06/29 00:47:10;;;;;;;9.82;4.75;;;564.00;1843.20;;;;;;5134613;27;20030;-74
2021/06/29 00:49:37;;;;;;;7.60;4.80;;;564.00;1843.20;;;;;;5135099;27;20021;-74
2021/06/29 00:52:04;;;;;;;8.73;4.57;;;563.90;1843.20;;;;;;5132143;27;20019;-74
2021/06/29 00:54:34;;;;;;;9.32;4.65;;;563.70;1868.80;;;;;;5134246;27;20035;-78
2021/06/29 00:57:00;;;;;;;7.15;4.60;;;563.70;1868.80;;;;;;5134628;27;20031;-74
2021/06/29 00:59:26;;;;;;;7.57;4.60;;;563.70;1868.80;;;;;;5116340;27;20045;-75
2021/06/29 01:01:52;;;;;;;7.38;4.43;;;563.60;1894.40;;;;;;5134672;27;20046;-74
2021/06/29 01:04:18;;;;;;;7.30;4.90;;;563.60;1894.40;;;;;;5134303;27;20023;-74
2021/06/29 01:06:44;;;;;;;12.77;5.45;;;563.60;1894.40;;;;;;5112950;27;20035;-79
2021/06/29 01:09:09;;;;;;;7.38;4.93;;;563.60;1894.40;;;;;;5115734;27;20030;-74
2021/06/29 01:11:35;;;;;;;7.00;4.15;;;563.50;1894.40;;;;;;5116092;27;20023;-74
2021/06/29 01:14:19;;;;;;;5.63;4.32;;;563.60;1894.40;;;;;;5134347;27;20019;-74
2021/06/29 01:16:45;;;;;;;7.93;4.93;;;563.70;1894.40;;;;;;5131277;27;20035;-74
2021/06/29 01:19:12;;;;;;;6.60;4.70;;;563.60;1894.40;;;;;;5133964;27;20514;-74
2021/06/29 01:21:44;;;;;;;9.48;5.70;;;563.40;1894.40;;;;;;5133878;27;20024;-75
2021/06/29 01:24:16;;;;;;;8.68;5.18;;;563.50;1920.00;;;;;;5131888;27;20015;-74
2021/06/29 01:26:48;;;;;;;10.93;5.90;;;563.50;1920.00;;;;;;5133976;27;20023;-74
2021/06/29 01:29:14;;;;;;;10.65;5.55;;;563.30;1920.00;;;;;;5115096;27;20028;-74
2021/06/29 01:31:40;;;;;;;6.10;4.65;;;563.50;1920.00;;;;;;5115696;27;20037;-74
2021/06/29 01:34:06;;;;;;;8.23;5.13;;;563.60;1894.40;;;;;;5133732;27;20086;-74
2021/06/29 01:36:36;;;;;;;7.20;5.55;;;563.50;1920.00;;;;;;5115215;27;20042;-74
2021/06/29 01:39:05;;;;;;;31.05;7.78;;;563.70;1894.40;;;;;;5133589;27;20416;-74
2021/06/29 01:41:31;;;;;;;8.05;4.85;;;563.60;1920.00;;;;;;5115626;27;20056;-74
2021/06/29 01:44:02;;;;;;;10.20;5.70;;;563.60;1894.40;;;;;;5115507;27;20054;-74
2021/06/29 01:46:31;;;;;;;10.10;5.22;;;563.50;1920.00;;;;;;5130859;27;20022;-74
2021/06/29 01:48:56;;;;;;;9.57;5.40;;;563.50;1920.00;;;;;;5133660;27;20019;-74
2021/06/29 01:51:23;;;;;;;7.40;4.57;;;563.30;1920.00;;;;;;5133499;27;20037;-74
2021/06/29 01:53:50;;;;;;;9.02;5.00;;;563.30;1920.00;;;;;;5133214;27;20039;-74
2021/06/29 01:56:17;;;;;;;12.50;5.60;;;563.20;1945.60;;;;;;5133293;27;20058;-74
2021/06/29 01:58:50;;;;;;;9.18;4.95;;;538.50;1920.00;;;;;;5114937;27;20060;-74
2021/06/29 02:01:16;;;;;;;6.57;5.20;;;538.50;1920.00;;;;;;5133156;27;20055;-77
2021/06/29 02:03:42;;;;;;;9.13;5.47;;;563.30;1945.60;;;;;;5133053;27;20574;-74
2021/06/29 02:06:08;;;;;;;12.35;4.97;;;563.20;1945.60;;;;;;5133503;27;20106;-74
2021/06/29 02:08:33;;;;;;;15.77;5.30;;;563.30;1945.60;;;;;;5133261;27;20015;-76
2021/06/29 02:10:59;;;;;;;10.00;5.60;;;563.50;1920.00;;;;;;5133506;27;20023;-74
2021/06/29 02:13:25;;;;;;;11.18;5.00;;;563.60;1920.00;;;;;;5114563;27;20035;-76
2021/06/29 02:15:51;;;;;;;8.65;4.90;;;563.30;1945.60;;;;;;5132732;27;20034;-74
2021/06/29 02:18:17;;;;;;;13.90;5.50;;;563.20;1945.60;;;;;;5132916;27;20023;-74
2021/06/29 02:20:43;;;;;;;9.07;5.20;;;538.50;1945.60;;;;;;5132805;27;20023;-74
2021/06/29 02:23:09;;;;;;;12.20;5.63;;;538.40;1945.60;;;;;;5114444;27;20035;-74
2021/06/29 02:25:34;;;;;;;11.80;5.93;;;538.40;1945.60;;;;;;5114912;27;20027;-74
2021/06/29 02:28:00;;;;;;;17.55;5.85;;;538.30;1945.60;;;;;;5114665;27;20034;-74
2021/06/29 02:30:26;;;;;;;9.90;5.72;;;538.20;1945.60;;;;;;5132817;27;20053;-74
2021/06/29 02:32:52;;;;;;;10.85;5.35;;;538.20;1971.20;;;;;;5132712;27;20434;-74
2021/06/29 02:35:18;;;;;;;8.23;5.88;;;538.20;1971.20;;;;;;5132416;27;20019;-74
2021/06/29 02:37:43;;;;;;;11.27;6.15;;;538.30;1945.60;;;;;;5132829;27;20035;-74
2021/06/29 02:40:10;;;;;;;9.38;5.75;;;538.30;1945.60;;;;;;5129177;27;20012;-74
2021/06/29 02:42:37;;;;;;;10.73;6.10;;;538.20;1971.20;;;;;;5113615;28;20019;-74
2021/06/29 02:45:07;;;;;;;8.95;5.88;;;538.40;1945.60;;;;;;5132592;27;20022;-73
2021/06/29 02:47:35;;;;;;;10.27;5.53;;;538.40;1945.60;;;;;;5112021;27;20099;-74
2021/06/29 02:50:01;;;;;;;10.50;5.75;;;538.30;1945.60;;;;;;5132851;27;20456;-80
2021/06/29 02:52:28;;;;;;;12.10;6.32;;;538.20;1971.20;;;;;;5131743;27;20515;-74
2021/06/29 02:54:53;;;;;;;11.27;5.95;;;538.10;1971.20;;;;;;5132329;27;20130;-74
2021/06/29 02:57:19;;;;;;;12.15;6.18;;;538.00;1971.20;;;;;;5113872;27;20498;-74
2021/06/29 02:59:45;;;;;;;8.93;6.07;;;538.00;1996.80;;;;;;5132565;27;20023;-75
2021/06/29 03:02:11;;;;;;;8.23;6.25;;;538.00;1996.80;;;;;;5113680;27;20122;-74
2021/06/29 03:04:36;;;;;;;11.20;6.82;;;538.00;1996.80;;;;;;5132399;27;20016;-78
2021/06/29 03:07:02;;;;;;;14.00;7.10;;;537.90;1996.80;;;;;;5132096;27;20019;-79
2021/06/29 03:09:28;;;;;;;11.82;6.90;;;537.80;1996.80;;;;;;5113978;27;20054;-74
2021/06/29 03:11:54;;;;;;;11.05;6.85;;;537.70;2022.40;;;;;;5132099;27;20445;-74
2021/06/29 03:14:19;;;;;;;24.02;7.90;;;537.70;2022.40;;;;;;5132341;27;20019;-74
2021/06/29 03:16:45;;;;;;;12.25;7.25;;;512.90;2022.40;;;;;;5131989;27;20035;-74
2021/06/29 03:19:11;;;;;;;12.73;7.15;;;512.80;2048.00;;;;;;5113098;28;20038;-74
2021/06/29 03:21:37;;;;;;;15.82;7.32;;;512.90;2022.40;;;;;;5113495;28;20068;-74
2021/06/29 03:24:03;;;;;;;9.95;6.78;;;512.90;2022.40;;;;;;5113561;28;20076;-74
2021/06/29 03:26:29;;;;;;;10.77;6.90;;;512.90;2022.40;;;;;;5131907;28;20481;-74
2021/06/29 03:28:55;;;;;;;13.38;6.47;;;537.60;2048.00;;;;;;5132130;28;20064;-74
2021/06/29 03:31:21;;;;;;;10.57;6.53;;;512.90;2022.40;;;;;;5132356;28;20442;-74
2021/06/29 03:33:46;;;;;;;12.93;7.35;;;537.60;2048.00;;;;;;5131469;28;20069;-74
2021/06/29 03:36:12;;;;;;;13.05;7.55;;;537.60;2048.00;;;;;;5131812;28;20080;-73
2021/06/29 03:38:38;;;;;;;11.05;7.25;;;537.70;2048.00;;;;;;5131761;28;20019;-74
2021/06/29 03:41:04;;;;;;;15.95;8.05;;;537.80;2048.00;;;;;;5132210;27;20564;-77
2021/06/29 03:43:34;;;;;;;14.13;7.05;;;537.80;2048.00;;;;;;5112978;28;20039;-78
2021/06/29 03:46:01;;;;;;;12.60;7.45;;;537.70;2073.60;;;;;;5128928;28;20012;-75
2021/06/29 03:48:26;;;;;;;13.23;7.18;;;537.80;2073.60;;;;;;5131849;27;20034;-74
2021/06/29 03:50:52;;;;;;;12.73;6.72;;;537.90;2073.60;;;;;;5114315;27;20027;-79
2021/06/29 03:53:18;;;;;;;12.50;6.78;;;538.00;2073.60;;;;;;5117161;27;20454;-73
2021/06/29 03:55:43;;;;;;;20.10;7.28;;;538.10;2073.60;;;;;;5135856;27;20098;-74
2021/06/29 03:58:09;;;;;;;11.63;6.90;;;538.20;2048.00;;;;;;5116444;27;20507;-73
2021/06/29 04:00:35;;;;;;;11.80;6.10;;;538.30;2048.00;;;;;;5135667;27;20019;-73
2021/06/29 04:03:01;;;;;;;9.52;6.88;;;538.30;2073.60;;;;;;5132740;27;20023;-74
2021/06/29 04:05:26;;;;;;;10.38;6.80;;;538.40;2048.00;;;;;;5116662;27;20034;-74
2021/06/29 04:07:52;;;;;;;9.73;6.10;;;538.50;2048.00;;;;;;5117507;27;20023;-74
2021/06/29 04:10:18;;;;;;;13.63;5.90;;;538.50;2048.00;;;;;;5135418;27;20103;-74
2021/06/29 04:12:43;;;;;;;9.50;6.25;;;563.20;2073.60;;;;;;5135733;27;20472;-78
2021/06/29 04:15:11;;;;;;;11.25;6.85;;;563.30;2073.60;;;;;;5135411;27;20457;-74
2021/06/29 04:17:37;;;;;;;9.63;6.00;;;563.50;2073.60;;;;;;5135254;27;20070;-73
2021/06/29 04:20:07;;;;;;;15.18;6.70;;;563.60;2073.60;;;;;;5135288;27;20019;-74
2021/06/29 04:22:34;;;;;;;14.02;6.22;;;563.70;2073.60;;;;;;5134923;27;20030;-74
2021/06/29 04:25:00;;;;;;;8.88;5.88;;;563.90;2048.00;;;;;;5135035;27;20072;-74
2021/06/29 04:27:26;;;;;;;13.48;6.82;;;563.90;2048.00;;;;;;5116957;27;20026;-75
2021/06/29 04:29:52;;;;;;;13.38;6.63;;;563.90;2048.00;;;;;;5116849;27;20053;-78
2021/06/29 04:32:19;;;;;;;13.63;6.03;;;564.00;2048.00;;;;;;5134771;27;20031;-74
2021/06/29 04:34:45;;;;;;;8.60;6.32;;;564.10;2048.00;;;;;;5135234;27;20441;-73
2021/06/29 04:37:10;;;;;;;8.07;5.85;;;588.80;2048.00;;;;;;5116585;27;20031;-73
2021/06/29 04:39:36;;;;;;;28.27;8.52;;;588.90;2022.40;;;;;;5135079;27;20015;-74
2021/06/29 04:42:02;;;;;;;10.98;6.75;;;588.90;2048.00;;;;;;5135097;27;20026;-75
2021/06/29 04:44:28;;;;;;;15.70;6.25;;;589.00;2048.00;;;;;;5134400;27;20023;-75
2021/06/29 04:46:56;;;;;;;8.32;5.97;;;589.10;1996.80;;;;;;5135048;27;20525;-73
2021/06/29 04:49:25;;;;;;;9.43;6.10;;;589.30;1996.80;;;;;;5115812;27;20104;-74
2021/06/29 04:51:51;;;;;;;10.23;7.80;;;589.40;1996.80;;;;;;5134914;27;20019;-74
2021/06/29 04:54:16;;;;;;;10.57;5.82;;;589.70;1996.80;;;;;;5134453;27;20054;-78
2021/06/29 04:56:42;;;;;;;8.88;5.70;;;614.40;1971.20;;;;;;5116485;27;20034;-74
2021/06/29 04:59:08;;;;;;;8.57;6.05;;;614.50;1971.20;;;;;;5116036;27;20065;-73
2021/06/29 05:01:34;;;;;;;8.55;6.05;;;614.70;1920.00;;;;;;5115913;27;20422;-74
2021/06/29 05:03:59;;;;;;;12.57;6.30;;;614.80;1894.40;;;;;;5133004;27;20022;-75
2021/06/29 05:06:25;;;;;;;9.23;6.05;;;614.90;1868.80;;;;;;5134259;27;20011;-73
2021/06/29 05:08:51;;;;;;;12.52;11.25;;;615.00;1894.40;;;;;;5116357;27;20147;-75
2021/06/29 05:11:16;;;;;;;8.00;5.18;;;615.10;1843.20;;;;;;5134494;27;20019;-77
2021/06/29 05:13:42;;;;;;;6.82;5.28;;;615.10;1843.20;;;;;;5134510;27;20384;-74
2021/06/29 05:16:08;;;;;;;11.32;5.50;;;615.20;1843.20;;;;;;5134065;27;20027;-76
2021/06/29 05:18:34;;;;;;;7.13;5.88;;;615.30;1843.20;;;;;;5134151;27;20019;-78
2021/06/29 05:21:00;;;;;;;6.75;5.65;;;640.10;1817.60;;;;;;5116181;27;20027;-78
2021/06/29 05:23:26;;;;;;;10.55;5.22;;;640.20;1817.60;;;;;;5134161;27;20104;-74
2021/06/29 05:25:52;;;;;;;8.82;5.05;;;640.10;1792.00;;;;;;5115629;27;20118;-74
2021/06/29 05:28:24;;;;;;;6.85;5.35;;;640.20;1792.00;;;;;;5116077;27;20468;-74
2021/06/29 05:30:51;;;;;;;11.48;5.63;;;640.30;1766.40;;;;;;5132312;27;20038;-74
2021/06/29 05:33:17;;;;;;;8.77;5.50;;;640.50;1792.00;;;;;;5133926;27;20091;-79
2021/06/29 05:35:44;;;;;;;7.15;5.35;;;640.60;1766.40;;;;;;5133677;27;20007;-74
2021/06/29 05:38:10;;;;;;;9.23;5.13;;;640.60;1740.80;;;;;;5133687;27;20011;-74
2021/06/29 05:40:36;;;;;;;10.18;4.80;;;640.70;1740.80;;;;;;5134046;27;20524;-74
2021/06/29 05:43:02;;;;;;;10.77;5.00;;;640.90;1740.80;;;;;;5133618;27;20020;-74
2021/06/29 05:45:29;;;;;;;8.32;5.15;;;665.70;1766.40;;;;;;5133850;27;20064;-79
2021/06/29 05:47:56;;;;;;;10.82;5.25;;;665.70;1766.40;;;;;;5133385;27;20098;-74
2021/06/29 05:50:22;;;;;;;9.82;4.72;;;665.90;1740.80;;;;;;5133498;27;20038;-74
2021/06/29 05:52:47;;;;;;;9.10;5.07;;;666.00;1740.80;;;;;;5115036;27;20023;-74
2021/06/29 05:55:14;;;;;;;6.13;4.82;;;666.20;1740.80;;;;;;5133409;27;20109;-74
2021/06/29 05:57:40;;;;;;;7.65;5.13;;;666.30;1715.20;;;;;;5133498;27;20476;-74
2021/06/29 06:00:09;;;;;;;8.50;4.90;;;666.40;1740.80;;;;;;5133225;27;20019;-75
2021/06/29 06:02:35;;;;;;;5.72;4.78;;;691.20;1664.00;;;;;;5132493;27;20442;-78
2021/06/29 06:05:01;;;;;;;11.30;5.18;;;691.20;1664.00;;;;;;5114626;27;20023;-74
2021/06/29 06:07:26;;;;;;;8.00;5.30;;;691.30;1664.00;;;;;;5133312;27;20068;-74
2021/06/29 06:09:52;;;;;;;7.97;4.60;;;691.40;1638.40;;;;;;5133100;27;20358;-77
2021/06/29 06:12:18;;;;;;;9.07;5.18;;;691.50;1638.40;;;;;;5115108;27;20146;-74
2021/06/29 06:14:43;;;;;;;6.03;4.57;;;691.70;1612.80;;;;;;5132823;27;20022;-74
2021/06/29 06:17:09;;;;;;;8.25;5.15;;;691.80;1587.20;;;;;;5133377;27;20030;-74
2021/06/29 06:19:35;;;;;;;6.47;3.85;;;691.70;1638.40;;;;;;5132937;27;20641;-74
2021/06/29 06:22:00;;;;;;;11.60;4.72;;;692.10;1561.60;;;;;;5114164;27;20122;-80
2021/06/29 06:24:26;;;;;;;5.68;4.18;;;716.80;1587.20;;;;;;5132943;27;20463;-74
2021/06/29 06:26:52;;;;;;;7.05;4.30;;;716.90;1561.60;;;;;;5132682;27;20019;-74
2021/06/29 06:29:17;;;;;;;7.10;4.03;;;717.10;1561.60;;;;;;5132866;27;20047;-79
2021/06/29 06:31:43;;;;;;;6.20;4.63;;;717.20;1536.00;;;;;;5132638;27;20076;-74
2021/06/29 06:34:09;;;;;;;7.18;4.45;;;717.40;1510.40;;;;;;5132889;27;20454;-74
2021/06/29 06:36:35;;;;;;;7.90;4.63;;;717.40;1510.40;;;;;;5132711;27;20073;-73
2021/06/29 06:39:00;;;;;;;11.85;4.78;;;717.50;1510.40;;;;;;5133010;27;20015;-74
2021/06/29 06:41:26;;;;;;;7.70;4.57;;;717.70;1536.00;;;;;;5132640;27;20376;-74
2021/06/29 06:43:52;;;;;;;7.22;4.53;;;742.40;1510.40;;;;;;5133131;27;20124;-77
2021/06/29 06:46:18;;;;;;;6.22;4.07;;;742.60;1510.40;;;;;;5132471;27;20511;-73
2021/06/29 06:48:43;;;;;;;10.63;4.28;;;742.60;1484.80;;;;;;5132350;27;20023;-74
2021/06/29 06:51:10;;;;;;;5.60;4.20;;;742.70;1459.20;;;;;;5129727;27;20030;-77
2021/06/29 06:53:37;;;;;;;8.95;4.22;;;742.80;1408.00;;;;;;5117933;27;20028;-75
2021/06/29 06:56:03;;;;;;;7.93;4.18;;;742.90;1433.60;;;;;;5114357;27;20110;-74
2021/06/29 06:58:28;;;;;;;13.00;4.57;;;743.00;1433.60;;;;;;5114454;27;20023;-74
2021/06/29 07:00:54;;;;;;;8.70;4.65;;;743.10;1408.00;;;;;;5133439;27;20032;-74
2021/06/29 07:03:20;;;;;;;10.57;4.32;;;743.20;1408.00;;;;;;5132701;27;20023;-73
2021/06/29 07:05:46;;;;;;;6.43;4.18;;;743.30;1408.00;;;;;;5132833;27;20376;-79
2021/06/29 07:08:11;;;;;;;7.90;4.60;;;743.30;1305.60;;;;;;5132630;27;20023;-74
2021/06/29 07:10:37;;;;;;;10.57;3.97;;;768.00;1305.60;;;;;;5132640;27;20020;-74
2021/06/29 07:13:03;;;;;;;9.27;4.40;;;768.00;1331.20;;;;;;5132652;27;20514;-73
2021/06/29 07:15:29;;;;;;;6.82;3.75;;;768.10;1305.60;;;;;;5113585;28;20498;-74
2021/06/29 07:17:55;;;;;;;9.90;4.95;;;768.10;1305.60;;;;;;5114330;28;20085;-75
2021/06/29 07:20:21;;;;;;;4.60;3.95;;;768.20;1305.60;;;;;;5113961;28;20015;-74
2021/06/29 07:22:47;;;;;;;7.68;3.90;;;768.40;1331.20;;;;;;5132490;28;20026;-74
2021/06/29 07:25:13;;;;;;;9.38;4.10;;;768.30;1305.60;;;;;;5132385;27;20058;-74
2021/06/29 07:27:39;;;;;;;8.77;3.65;;;768.60;1305.60;;;;;;5136665;27;20473;-74
2021/06/29 07:30:07;;;;;;;10.20;4.45;;;768.60;1280.00;;;;;;5136700;27;20019;-75
2021/06/29 07:32:33;;;;;;;5.97;3.70;;;768.70;1254.40;;;;;;5137037;27;20027;-81
2021/06/29 07:34:59;;;;;;;9.20;4.43;;;768.70;1280.00;;;;;;5136565;27;20103;-74
2021/06/29 07:37:25;;;;;;;8.35;3.97;;;768.90;1280.00;;;;;;5118242;27;20519;-73
2021/06/29 07:39:51;;;;;;;10.57;4.32;;;793.60;1305.60;;;;;;5136392;27;20505;-74
2021/06/29 07:42:17;;;;;;;11.73;4.55;;;768.90;1280.00;;;;;;5100865;27;20039;-74
2021/06/29 07:44:42;;;;;;;7.50;4.32;;;793.70;1305.60;;;;;;5136858;27;20529;-75
2021/06/29 07:47:08;;;;;;;6.13;4.35;;;793.70;1305.60;;;;;;5136121;27;20383;-74
2021/06/29 07:49:34;;;;;;;8.27;4.18;;;793.70;1305.60;;;;;;5136614;27;20019;-74
2021/06/29 07:52:00;;;;;;;16.38;5.03;;;793.90;1331.20;;;;;;5135948;27;20109;-73
2021/06/29 07:54:26;;;;;;;6.55;4.30;;;794.00;1280.00;;;;;;5136065;27;20110;-75
2021/06/29 07:56:52;;;;;;;7.63;3.85;;;794.20;1280.00;;;;;;5135678;27;20122;-74
2021/06/29 07:59:18;;;;;;;6.22;3.75;;;794.20;1305.60;;;;;;5135965;27;20019;-75
2021/06/29 08:01:43;;;;;;;5.18;3.90;;;794.20;1305.60;;;;;;5135590;27;20023;-74
2021/06/29 08:04:09;;;;;;;8.95;5.07;;;794.20;1280.00;;;;;;5128234;27;20020;-73
2021/06/29 08:06:35;;;;;;;15.90;4.05;;;794.40;1280.00;;;;;;5129526;27;20027;-74
2021/06/29 08:09:01;;;;;;;7.20;4.28;;;794.50;1254.40;;;;;;5125056;27;20020;-75
2021/06/29 08:11:27;;;;;;;6.97;3.90;;;794.50;1280.00;;;;;;5133917;27;20050;-74
2021/06/29 08:13:52;;;;;;;9.75;4.70;;;819.30;1280.00;;;;;;5135436;27;20394;-74
2021/06/29 08:16:18;;;;;;;8.75;4.15;;;819.30;1254.40;;;;;;5116491;27;20047;-74
2021/06/29 08:18:44;;;;;;;6.82;4.10;;;819.20;1280.00;;;;;;5135001;27;20155;-74
2021/06/29 08:21:10;;;;;;;5.72;4.20;;;819.30;1254.40;;;;;;5116446;27;20031;-77
2021/06/29 08:23:36;;;;;;;5.78;5.05;;;819.50;1228.80;;;;;;5115847;27;20392;-74
2021/06/29 08:26:03;;;;;;;5.55;4.28;;;819.30;1177.60;;;;;;5135328;27;20419;-73
2021/06/29 08:28:33;;;;;;;4.70;4.07;;;819.50;1203.20;;;;;;5134461;27;20023;-73
2021/06/29 08:30:59;;;;;;;8.68;4.53;;;819.50;1203.20;;;;;;5134988;27;20072;-73
2021/06/29 08:33:25;;;;;;;12.05;5.47;;;819.50;1203.20;;;;;;5134980;27;20023;-79
2021/06/29 08:35:51;;;;;;;10.35;5.07;;;819.50;1203.20;;;;;;5115171;27;20098;-78
2021/06/29 08:38:18;;;;;;;7.80;4.47;;;819.70;1203.20;;;;;;5130728;27;20107;-74
2021/06/29 08:40:45;;;;;;;8.05;4.32;;;819.60;1203.20;;;;;;5128967;27;20494;-80
2021/06/29 08:43:12;;;;;;;7.32;4.15;;;819.80;1203.20;;;;;;5128704;27;20461;-73
2021/06/29 08:45:39;;;;;;;6.05;3.92;;;819.70;1203.20;;;;;;5134744;27;20025;-74
2021/06/29 08:48:06;;;;;;;6.07;4.00;;;819.80;1203.20;;;;;;5135064;27;20031;-75
2021/06/29 08:50:32;;;;;;;6.95;4.32;;;819.80;1203.20;;;;;;5131494;27;20031;-73
2021/06/29 08:53:04;;;;;;;6.47;4.18;;;819.80;1203.20;;;;;;5115504;27;20080;-73
2021/06/29 08:55:37;;;;;;;6.45;4.90;;;820.00;1203.20;;;;;;5128121;27;20078;-73
2021/06/29 08:58:03;;;;;;;9.50;4.90;;;820.00;1203.20;;;;;;5132271;27;20031;-75
2021/06/29 09:00:29;;;;;;;8.68;4.47;;;820.00;1203.20;;;;;;5116348;27;20011;-75
2021/06/29 09:02:54;;;;;;;9.32;5.43;;;820.00;1177.60;;;;;;5134773;27;20473;-74
2021/06/29 09:05:26;;;;;;;12.10;5.07;;;820.10;1203.20;;;;;;5119049;27;20027;-74
2021/06/29 09:08:11;;;;;;;8.23;4.97;;;820.10;1203.20;;;;;;5136092;27;20038;-74
2021/06/29 09:10:43;;;;;;;6.50;5.25;;;844.90;1228.80;;;;;;5118709;27;20488;-75
2021/06/29 09:13:10;;;;;;;10.75;5.15;;;844.90;1203.20;;;;;;5123160;27;20067;-74
2021/06/29 09:15:41;;;;;;;8.18;5.25;;;844.90;1228.80;;;;;;5128360;27;20011;-77
2021/06/29 09:18:08;;;;;;;8.75;5.22;;;845.20;1228.80;;;;;;5122157;27;20027;-75
2021/06/29 09:20:41;;;;;;;10.65;5.40;;;845.20;1203.20;;;;;;5118955;27;20027;-73
2021/06/29 09:23:19;;;;;;;7.72;5.57;;;845.20;1228.80;;;;;;5116054;27;20023;-74
2021/06/29 09:25:57;;;;;;;8.85;5.55;;;845.30;1203.20;;;;;;5133648;27;20366;-73
2021/06/29 09:28:25;;;;;;;8.40;5.40;;;845.30;1203.20;;;;;;5133807;27;20026;-73
2021/06/29 09:30:53;;;;;;;6.88;5.20;;;845.30;1203.20;;;;;;5131471;27;20034;-73
2021/06/29 09:33:26;;;;;;;10.40;5.32;;;845.30;1203.20;;;;;;5134122;27;20023;-73
2021/06/29 09:35:57;;;;;;;8.40;5.43;;;845.50;1203.20;;;;;;5113041;27;20031;-73
2021/06/29 09:38:26;;;;;;;7.72;5.75;;;845.60;1228.80;;;;;;5134063;27;20023;-73
2021/06/29 09:40:54;;;;;;;8.90;5.53;;;845.60;1203.20;;;;;;5131004;27;20023;-74
2021/06/29 09:43:21;;;;;;;5.45;4.72;;;870.50;1203.20;;;;;;5132682;27;20036;-73
2021/06/29 09:45:51;;;;;;;8.68;5.25;;;870.70;1177.60;;;;;;5120908;27;20051;-73
2021/06/29 09:48:27;;;;;;;9.32;6.47;;;870.70;1177.60;;;;;;5120548;27;20034;-82
2021/06/29 09:50:55;;;;;;;7.20;5.88;;;870.60;1203.20;;;;;;5127834;27;20419;-73
2021/06/29 09:53:31;;;;;;;11.85;5.45;;;870.60;1177.60;;;;;;5120495;27;20438;-74
2021/06/29 09:56:06;;;;;;;8.50;5.45;;;870.80;1177.60;;;;;;5130321;27;20485;-75
2021/06/29 09:58:33;;;;;;;11.50;5.72;;;870.70;1203.20;;;;;;5133889;27;20041;-75
2021/06/29 10:01:00;;;;;;;6.25;5.53;;;870.70;1177.60;;;;;;5133612;27;20030;-73
2021/06/29 10:03:39;;;;;;;12.85;5.88;;;870.80;1152.00;;;;;;5133101;27;20023;-78
2021/06/29 10:06:18;;;;;;;6.95;5.63;;;871.00;1152.00;;;;;;5133062;27;20019;-75
2021/06/29 10:08:52;;;;;;;8.02;5.28;;;871.10;1177.60;;;;;;5113965;27;20023;-73
2021/06/29 10:11:25;;;;;;;7.93;5.82;;;871.00;1177.60;;;;;;5111925;27;20019;-74
2021/06/29 10:13:54;;;;;;;9.27;5.88;;;871.10;1177.60;;;;;;5115127;27;20361;-78
2021/06/29 10:16:22;;;;;;;7.53;5.97;;;871.30;1152.00;;;;;;5110781;27;20095;-79
2021/06/29 10:19:00;;;;;;;8.77;6.30;;;871.30;1177.60;;;;;;5114708;27;20028;-74
2021/06/29 10:21:29;;;;;;;10.05;6.45;;;896.10;1177.60;;;;;;5126159;27;20440;-74
2021/06/29 10:24:00;;;;;;;11.20;6.22;;;896.30;1152.00;;;;;;5129899;27;20028;-75
2021/06/29 10:26:28;;;;;;;10.30;6.53;;;896.20;1177.60;;;;;;5125852;27;20040;-74
2021/06/29 10:28:55;;;;;;;19.33;6.82;;;896.30;1177.60;;;;;;5115024;27;20054;-75
2021/06/29 10:31:27;;;;;;;12.13;6.95;;;871.30;1203.20;;;;;;5125685;27;20522;-74
2021/06/29 10:33:55;;;;;;;12.32;7.18;;;871.30;1152.00;;;;;;5114225;27;20027;-73
2021/06/29 10:36:23;;;;;;;11.43;7.63;;;896.10;1152.00;;;;;;5130142;27;20019;-74
2021/06/29 10:38:50;;;;;;;11.02;7.72;;;896.20;1152.00;;;;;;5114204;27;20092;-73
2021/06/29 10:41:17;;;;;;;17.30;7.47;;;896.40;1126.40;;;;;;5112120;27;20034;-75
2021/06/29 10:43:44;;;;;;;15.68;7.88;;;896.60;1152.00;;;;;;5126389;27;20473;-79
2021/06/29 10:46:34;;;;;;;15.63;7.38;;;896.60;1126.40;;;;;;5127748;27;20396;-75
2021/06/29 10:49:37;;;;;;;13.95;9.30;;;896.80;1126.40;;;;;;5127693;27;20069;-76
2021/06/29 10:52:25;;;;;;;15.40;7.32;;;896.80;1100.80;;;;;;5045930;28;20497;-75
2021/06/29 10:54:55;;;;;;;17.50;8.18;;;896.80;1177.60;;;;;;5045650;28;20053;-78
2021/06/29 10:57:24;;;;;;;12.57;7.75;;;921.70;1126.40;;;;;;5043810;28;20041;-75
2021/06/29 10:59:55;;;;;;;13.18;8.25;;;921.70;1152.00;;;;;;5065743;28;20112;-79
2021/06/29 11:02:36;;;;;;;12.15;7.72;;;921.70;1126.40;;;;;;5048787;28;20029;-75
2021/06/29 11:05:07;;;;;;;15.73;8.65;;;896.90;1100.80;;;;;;5037226;28;20509;-74
2021/06/29 11:07:38;;;;;;;10.10;8.07;;;896.90;1100.80;;;;;;5049269;28;20041;-75
2021/06/29 11:10:28;;;;;;;14.27;8.07;;;896.90;1100.80;;;;;;5032972;28;20029;-75
2021/06/29 11:12:56;;;;;;;12.60;7.63;;;921.70;1126.40;;;;;;5048834;28;20033;-74
2021/06/29 11:15:44;;;;;;;9.90;8.30;;;921.70;1126.40;;;;;;5046520;28;20421;-74
2021/06/29 11:18:12;;;;;;;12.43;7.97;;;922.00;1100.80;;;;;;5048224;28;20037;-75
2021/06/29 11:20:43;;;;;;;10.65;8.05;;;922.00;1100.80;;;;;;5042238;28;20804;-75
2021/06/29 11:23:25;;;;;;;14.43;8.63;;;921.90;1100.80;;;;;;5048357;28;20064;-75
2021/06/29 11:26:10;;;;;;;9.50;8.13;;;922.10;1100.80;;;;;;5085330;28;20507;-75
2021/06/29 11:28:38;;;;;;;12.38;8.20;;;922.30;1100.80;;;;;;5132462;28;20031;-74
2021/06/29 11:31:06;;;;;;;13.98;8.15;;;922.30;1075.20;;;;;;5113894;28;20027;-75
2021/06/29 11:33:49;;;;;;;12.90;8.95;;;922.50;1049.60;;;;;;5132328;27;20075;-79
2021/06/29 11:36:24;;;;;;;16.25;8.38;;;922.40;1075.20;;;;;;5131701;28;20061;-74
2021/06/29 11:38:58;;;;;;;8.93;7.65;;;922.30;1075.20;;;;;;5131712;27;20061;-78
2021/06/29 11:41:33;;;;;;;11.02;8.50;;;922.10;1100.80;;;;;;5112009;28;20027;-78
2021/06/29 11:44:18;;;;;;;9.32;8.25;;;922.40;1075.20;;;;;;5111101;28;20020;-74
2021/06/29 11:46:55;;;;;;;10.60;7.70;;;922.50;1075.20;;;;;;5129535;28;20098;-78
2021/06/29 11:49:36;;;;;;;11.20;8.10;;;922.50;1075.20;;;;;;5131621;28;20051;-74
2021/06/29 11:52:17;;;;;;;13.27;8.60;;;922.50;1049.60;;;;;;5130639;28;20020;-78
2021/06/29 11:54:44;;;;;;;13.63;8.07;;;947.20;1100.80;;;;;;5113259;28;20396;-74
2021/06/29 11:57:14;;;;;;;14.93;8.32;;;947.30;1075.20;;;;;;5132302;27;20046;-74
2021/06/29 11:59:40;;;;;;;13.73;8.15;;;947.30;1049.60;;;;;;5113571;28;20106;-74
2021/06/29 12:02:10;;;;;;;15.00;8.73;;;947.30;1049.60;;;;;;5113817;28;20537;-75
2021/06/29 12:04:51;;;;;;;11.40;7.63;;;947.30;1024.00;;;;;;5113957;28;20065;-75
2021/06/29 12:07:31;;;;;;;10.75;7.78;;;922.50;1049.60;;;;;;5113701;28;20096;-74
2021/06/29 12:09:57;;;;;;;12.60;8.80;;;947.30;1049.60;;;;;;5113582;28;20033;-75
2021/06/29 12:12:25;;;;;;;11.82;8.63;;;947.50;1024.00;;;;;;5133723;27;20102;-78
2021/06/29 12:15:01;;;;;;;11.13;8.55;;;947.60;1049.60;;;;;;5136099;27;20023;-74
2021/06/29 12:17:28;;;;;;;13.52;7.97;;;947.60;1024.00;;;;;;5136045;27;20106;-74